Asheville, NC (28804)

12:27 PM EDT on March 31, 2015 (GMT -0400)
Sherwood Heights | | Change Station
CLOSE
Current Station
Personal Weather Station
Location: Asheville, NC
Elevation: 2497 ft
Nearby Weather Stations
Active Advisory: Special Statement

Elev 2497 ft 35.65 °N, 82.55 °W | Updated 5 seconds ago

Clear
Clear
64.2 °F
Feels Like 64.2 °F
N
4.0
Wind Variable Wind from SSW
Gusts 6.0 mph

Today
High -- | Low -- °F
--% Chance of Precip.
Yesterday
High -- | Low -- °F
Precip. -- in
7:18 AM 7:50 PM
Waxing Gibbous, 87% visible
Pressure 29.98 in
Visibility 10.0 miles
Clouds Clear
Dew Point 30 °F
Humidity 27%
Rainfall 0.00 in
Snow Depth Not available.
UV 8 out of 12
Pollen 9.90 out of 12
Air Quality Not available.
Flu Activity Not available.
METAR KAVL 311554Z 20006KT 10SM CLR 16/M02 A3001 RMK AO2 SLP152 T01611017

More Conditions Fewer Conditions

Pressure 29.98 in
Visibility 10.0 miles
Clouds Clear
Dew Point 30 °F
Humidity 27%
Rainfall 0.00 in
Snow Depth Not available.
UV 8 out of 12
Pollen 9.90 out of 12
Air Quality Not available.
Flu Activity Not available.
METAR KAVL 311554Z 20006KT 10SM CLR 16/M02 A3001 RMK AO2 SLP152 T01611017

More Conditions Fewer Conditions

10-Day Weather Forecast

Almanac

Astronomy

Mar. 31, 2015 Rise Set
Actual Time
Civil Twilight
Nautical Twilight
Astronomical Twilight
Moon
Length of Visible Light
Length of Day
Tomorrow will be .
, % of the Moon is Illuminated

Today's Extremes

State Highs State Lows

Community

WunderPhotos

Upload Photos

1,809,787 photos uploaded!

WunderBlogs® & News

Nearby

Air Quality

  Air Quality AQ Index Pollutant
Not available.

Snow Depth

Station Depth Elevation

Earthquake Activity

City Distance Mag. Time & Date
Minimum magnitude displayed is 2.5.

Coastal Water Temperatures

Place Temperature

Stations

Nearby Weather Stations

Station Location Temp. Windchill Dew Point Humidity Wind Precip. Elev Updated Type
                   
Special Statement
Statement as of 3:13 AM EDT on March 31, 2015

... Increased fire danger from noon EDT today through
this afternoon...

Dry high pressure will be over the region today which will
promote temperatures warming into the 60s to around 70 over most
of western North Carolina. In response... relative humidity values
are expected to fall into the mid 20s for several hours. Fine
fuels will be slowly drying and fuel moisture may reach critical
values during the afternoon hours. Winds will be mostly southwest
and increase to around 10 mph with some gusts to 20 mph over the
higher ridge tops. The combination of dry air and fuels will
heighten fire danger.


Cdg